Time;durP1;ratioP1;P1;durP2;ratioP2;P2;SDS_P1;SDS_P2;PMS_P1;PMS_P2;Temp;Humidity;BMP_temperature;BMP_pressure;BME280_temperature;BME280_humidity;BME280_pressure;Samples;Min_cycle;Max_cycle;Signal;HPM_P1;HPM_P2
2021/07/14 00:00:58;;;;;;;33.57;17.73;;;;;;;22.23;72.24;98352.94;2007107;88;21524;-65
2021/07/14 00:03:58;;;;;;;32.55;18.35;;;;;;;22.23;72.07;98361.47;1982000;89;21033;-65
2021/07/14 00:06:58;;;;;;;32.67;18.37;;;;;;;22.22;72.37;98350.45;2007173;88;21520;-65
2021/07/14 00:09:59;;;;;;;32.65;17.95;;;;;;;22.21;72.35;98356.80;2007112;88;21496;-65
2021/07/14 00:22:09;;;;;;;30.68;17.15;;;;;;;22.17;72.48;98351.00;1981974;89;21084;-65
2021/07/14 00:25:08;;;;;;;28.98;17.62;;;;;;;22.19;72.67;98351.64;1982068;89;21001;-65
2021/07/14 00:28:09;;;;;;;32.80;18.70;;;;;;;22.18;72.62;98350.48;2007266;88;21033;-65
2021/07/14 00:31:14;;;;;;;30.90;17.75;;;;;;;22.16;72.56;98350.66;2007334;88;21072;-65
2021/07/14 00:34:12;;;;;;;29.32;17.00;;;;;;;22.13;72.60;98353.70;1982207;89;21021;-65
2021/07/14 00:37:12;;;;;;;27.63;16.87;;;;;;;22.12;72.70;98355.55;2007339;88;21052;-65
2021/07/14 00:40:12;;;;;;;31.05;17.60;;;;;;;22.12;72.98;98356.03;2007538;88;21109;-65
2021/07/14 00:43:13;;;;;;;27.67;16.93;;;;;;;22.13;73.04;98355.85;2010077;89;21519;-65
2021/07/14 00:46:13;;;;;;;32.17;18.00;;;;;;;22.13;72.89;98361.19;2010086;89;21057;-65
2021/07/14 00:49:14;;;;;;;31.67;18.37;;;;;;;22.12;72.95;98365.38;2009716;89;21097;-65
2021/07/14 00:52:14;;;;;;;29.35;18.10;;;;;;;22.10;73.16;98370.08;2010084;89;21077;-65
2021/07/14 00:55:14;;;;;;;31.33;18.02;;;;;;;22.09;73.09;98368.41;2010078;89;20989;-65
2021/07/14 00:58:15;;;;;;;30.10;17.23;;;;;;;22.11;73.10;98373.91;2010052;89;21045;-65
2021/07/14 01:01:15;;;;;;;30.70;16.70;;;;;;;22.12;73.15;98372.05;2009957;89;21508;-64
2021/07/14 01:04:16;;;;;;;27.37;15.97;;;;;;;22.11;73.14;98371.72;2009973;89;21472;-65
2021/07/14 01:07:16;;;;;;;30.10;17.55;;;;;;;22.12;73.06;98371.57;2009983;89;21061;-65
2021/07/14 01:10:17;;;;;;;28.57;17.90;;;;;;;22.11;73.18;98364.56;2009953;89;20997;-65
2021/07/14 01:13:22;;;;;;;27.57;17.23;;;;;;;22.11;73.13;98369.91;2009937;89;21556;-65
2021/07/14 01:16:20;;;;;;;29.25;17.40;;;;;;;22.12;73.00;98372.05;1981300;89;21068;-65
2021/07/14 01:19:21;;;;;;;32.07;17.50;;;;;;;22.07;73.02;98367.26;2009904;89;21024;-65
2021/07/14 01:22:21;;;;;;;30.32;17.15;;;;;;;22.02;73.22;98362.13;2009976;89;21137;-65
2021/07/14 01:25:21;;;;;;;28.20;16.35;;;;;;;22.00;73.24;98364.98;2010162;89;21049;-65
2021/07/14 01:28:22;;;;;;;29.45;17.80;;;;;;;21.98;73.36;98354.99;2010022;89;21057;-65
2021/07/14 01:31:22;;;;;;;29.97;18.40;;;;;;;21.93;73.34;98350.16;2010063;89;21021;-65
2021/07/14 01:34:23;;;;;;;30.47;18.67;;;;;;;21.88;73.57;98347.21;2009933;89;21076;-65
2021/07/14 01:37:23;;;;;;;32.23;18.67;;;;;;;21.84;73.55;98346.39;2009914;89;21520;-65
2021/07/14 01:40:24;;;;;;;31.90;19.20;;;;;;;21.83;73.52;98342.90;2009750;88;21097;-64
2021/07/14 01:43:24;;;;;;;33.55;19.20;;;;;;;21.76;73.72;98348.11;2009840;89;21132;-65
2021/07/14 01:46:24;;;;;;;32.75;18.02;;;;;;;21.72;73.98;98346.83;2010044;89;21052;-65
2021/07/14 01:49:25;;;;;;;31.48;16.97;;;;;;;21.70;74.04;98346.16;2010126;89;21009;-65
2021/07/14 01:52:25;;;;;;;31.17;17.77;;;;;;;21.72;74.05;98349.50;2010091;89;21009;-64
2021/07/14 01:55:26;;;;;;;30.45;18.35;;;;;;;21.71;73.93;98350.49;2009960;89;21528;-64
2021/07/14 01:58:26;;;;;;;30.85;18.32;;;;;;;21.65;74.06;98351.20;2009888;89;21568;-65
2021/07/14 02:01:27;;;;;;;31.48;19.62;;;;;;;21.57;74.17;98356.58;2009900;89;21059;-65
2021/07/14 02:07:29;;;;;;;30.40;18.15;;;;;;;21.51;74.44;98355.93;1981285;89;21575;-65
2021/07/14 02:10:30;;;;;;;30.57;18.93;;;;;;;21.45;74.52;98349.45;2009950;89;21080;-65
2021/07/14 02:13:31;;;;;;;34.50;18.60;;;;;;;21.42;74.63;98345.30;2009515;89;21389;-65
2021/07/14 02:16:32;;;;;;;30.80;18.10;;;;;;;21.38;74.66;98338.64;2010033;89;21096;-64
2021/07/14 02:19:33;;;;;;;30.23;19.43;;;;;;;21.35;74.75;98347.48;2009976;89;21009;-65
2021/07/14 02:22:34;;;;;;;33.60;20.10;;;;;;;21.33;74.92;98352.17;2009942;89;21511;-65
2021/07/14 02:25:34;;;;;;;30.02;19.15;;;;;;;21.30;75.42;98350.67;2009913;89;21077;-64
2021/07/14 02:28:35;;;;;;;33.48;18.40;;;;;;;21.27;75.09;98351.03;2009853;89;21069;-65
2021/07/14 02:31:35;;;;;;;33.25;18.27;;;;;;;21.23;75.00;98353.70;2010149;89;21024;-65
2021/07/14 02:34:36;;;;;;;35.00;19.80;;;;;;;21.13;75.01;98359.75;2009940;89;21088;-65
2021/07/14 02:37:36;;;;;;;29.50;18.98;;;;;;;21.05;75.47;98359.30;2009662;88;21097;-65
2021/07/14 02:40:37;;;;;;;31.60;18.17;;;;;;;20.99;75.63;98354.15;2009235;88;21556;-64
2021/07/14 02:43:37;;;;;;;29.18;18.75;;;;;;;20.99;75.37;98357.30;2007248;88;21077;-65
2021/07/14 02:46:38;;;;;;;31.05;18.02;;;;;;;20.94;75.77;98349.82;2007217;89;20997;-64
2021/07/14 02:49:39;;;;;;;31.82;18.62;;;;;;;20.99;75.99;98351.96;2007316;88;21009;-65
2021/07/14 02:52:39;;;;;;;32.37;19.53;;;;;;;21.03;76.04;98354.14;2007086;88;20993;-64
2021/07/14 02:55:39;;;;;;;32.13;20.25;;;;;;;21.10;75.98;98357.78;2007228;88;21519;-65
2021/07/14 02:58:40;;;;;;;30.55;18.98;;;;;;;21.11;76.00;98359.42;2007202;88;21582;-65
2021/07/14 03:01:40;;;;;;;29.20;18.50;;;;;;;21.12;75.91;98356.27;2007073;88;21095;-64
2021/07/14 03:04:41;;;;;;;30.08;18.32;;;;;;;21.15;75.90;98357.25;2007006;88;21075;-64
2021/07/14 03:07:41;;;;;;;31.45;19.35;;;;;;;21.18;75.92;98356.08;2007323;88;21052;-65
2021/07/14 03:10:42;;;;;;;31.48;19.42;;;;;;;21.20;75.97;98359.39;2007168;88;21040;-64
2021/07/14 03:13:42;;;;;;;31.93;20.65;;;;;;;21.23;75.95;98359.05;2007192;89;21045;-65
2021/07/14 03:16:43;;;;;;;34.63;21.45;;;;;;;21.23;75.97;98361.71;2006896;88;21547;-65
2021/07/14 03:19:43;;;;;;;32.93;20.48;;;;;;;21.28;76.04;98356.19;2007031;88;21543;-64
2021/07/14 03:22:44;;;;;;;33.83;19.67;;;;;;;21.33;76.14;98362.33;2007058;88;21013;-65
2021/07/14 03:25:44;;;;;;;34.25;20.05;;;;;;;21.35;75.95;98360.81;2007085;88;21045;-64
2021/07/14 03:28:44;;;;;;;30.90;18.37;;;;;;;21.39;75.97;98362.98;2007359;88;21001;-64
2021/07/14 03:31:45;;;;;;;31.67;19.70;;;;;;;21.46;75.97;98363.09;2007183;88;21052;-65
2021/07/14 03:34:45;;;;;;;31.00;18.77;;;;;;;21.53;75.89;98363.27;2007064;88;21008;-65
2021/07/14 03:37:48;;;;;;;29.63;19.43;;;;;;;21.57;75.88;98364.08;2007178;88;21010;-64
2021/07/14 03:40:48;;;;;;;29.67;19.30;;;;;;;21.62;75.85;98366.20;1981844;88;21061;-65
2021/07/14 03:43:49;;;;;;;33.30;19.57;;;;;;;21.70;75.87;98360.02;2007270;88;21500;-65
2021/07/14 03:46:50;;;;;;;31.97;19.62;;;;;;;21.76;75.88;98354.78;2006950;88;21593;-65
2021/07/14 03:49:50;;;;;;;30.10;19.03;;;;;;;21.87;75.55;98356.22;2007004;88;21049;-64
2021/07/14 03:52:51;;;;;;;30.80;18.73;;;;;;;21.94;75.62;98361.17;2007160;88;21016;-65
2021/07/14 03:55:51;;;;;;;28.73;18.00;;;;;;;22.01;75.41;98361.30;2007290;88;21008;-65
2021/07/14 03:58:52;;;;;;;32.78;18.85;;;;;;;22.11;75.34;98361.89;2007064;88;21052;-65
2021/07/14 04:01:52;;;;;;;28.15;17.62;;;;;;;22.19;75.20;98356.16;2007035;88;21029;-64
2021/07/14 04:04:53;;;;;;;28.92;18.50;;;;;;;22.26;75.07;98352.58;2006728;89;21596;-64
2021/07/14 04:07:54;;;;;;;32.03;18.57;;;;;;;22.31;75.06;98350.69;2007015;88;21035;-64
2021/07/14 04:10:54;;;;;;;30.00;19.47;;;;;;;22.38;74.94;98348.17;2007159;88;21048;-65
2021/07/14 04:13:56;;;;;;;30.65;18.75;;;;;;;22.45;74.76;98350.44;1981531;89;21064;-65
2021/07/14 04:16:57;;;;;;;29.80;18.57;;;;;;;22.55;74.69;98352.86;2007262;88;21085;-65
2021/07/14 04:19:57;;;;;;;32.00;17.67;;;;;;;22.63;74.59;98349.59;2007225;88;20997;-65
2021/07/14 04:22:58;;;;;;;29.20;17.50;;;;;;;22.78;74.41;98343.43;2007144;88;20981;-65
2021/07/14 04:25:58;;;;;;;30.23;17.27;;;;;;;22.83;74.17;98341.87;2007057;88;21591;-65
2021/07/14 04:28:58;;;;;;;29.47;17.80;;;;;;;23.02;74.03;98346.34;2006996;88;21510;-65
2021/07/14 04:31:59;;;;;;;29.27;18.67;;;;;;;23.15;73.79;98349.20;2007031;88;21044;-64
2021/07/14 04:34:59;;;;;;;32.10;18.90;;;;;;;23.24;73.55;98352.61;2007263;88;21008;-65
2021/07/14 04:38:00;;;;;;;30.77;18.57;;;;;;;23.38;73.23;98351.45;2007114;88;21089;-64
2021/07/14 04:41:00;;;;;;;32.37;17.47;;;;;;;23.56;73.05;98354.55;2007376;88;21080;-65
2021/07/14 04:44:03;;;;;;;27.20;16.57;;;;;;;23.73;72.90;98351.63;2009967;89;21085;-65
2021/07/14 04:47:03;;;;;;;27.95;16.75;;;;;;;23.91;72.31;98353.92;1981164;89;21049;-64
2021/07/14 04:50:04;;;;;;;26.80;16.23;;;;;;;24.08;71.99;98356.66;2009910;89;21496;-65
2021/07/14 04:53:04;;;;;;;28.43;16.53;;;;;;;24.26;71.72;98351.34;2009905;89;21568;-64
2021/07/14 04:56:05;;;;;;;28.70;17.03;;;;;;;24.44;71.44;98350.84;2009515;89;21084;-65
2021/07/14 04:59:06;;;;;;;29.50;17.53;;;;;;;24.58;71.05;98359.31;2009796;89;21080;-64
2021/07/14 05:02:06;;;;;;;28.43;17.20;;;;;;;24.68;70.64;98350.95;2010120;88;21069;-64
2021/07/14 05:05:07;;;;;;;29.17;16.80;;;;;;;24.83;70.51;98353.55;2009821;89;21029;-64
2021/07/14 05:08:07;;;;;;;27.07;16.60;;;;;;;25.00;70.28;98345.48;2009894;89;21765;-65
2021/07/14 05:11:08;;;;;;;27.17;15.20;;;;;;;25.16;69.67;98341.64;2009763;89;21535;-64
2021/07/14 05:14:08;;;;;;;26.53;16.07;;;;;;;25.25;68.86;98336.41;2009823;89;21005;-65
2021/07/14 05:17:08;;;;;;;34.30;16.77;;;;;;;25.32;68.58;98337.00;2010068;89;21069;-65
2021/07/14 05:20:09;;;;;;;27.20;16.70;;;;;;;25.45;68.72;98336.22;2010139;89;21072;-64
2021/07/14 05:23:09;;;;;;;28.27;16.77;;;;;;;25.55;67.99;98336.66;2009814;89;21072;-64
2021/07/14 05:26:11;;;;;;;28.07;16.10;;;;;;;25.62;68.08;98337.50;2010092;89;21086;-65
2021/07/14 05:29:12;;;;;;;28.57;16.55;;;;;;;25.83;67.61;98338.36;2009706;89;21039;-65
2021/07/14 05:32:12;;;;;;;32.23;16.20;;;;;;;25.86;67.38;98336.61;2010157;89;21069;-65
2021/07/14 05:35:13;;;;;;;29.13;16.30;;;;;;;25.95;67.21;98344.80;2010054;89;21117;-64
2021/07/14 05:38:19;;;;;;;27.80;15.20;;;;;;;26.18;66.98;98343.09;2010040;89;21001;-64
2021/07/14 05:41:15;;;;;;;27.22;14.93;;;;;;;26.38;66.29;98343.09;1980767;88;21057;-64
2021/07/14 05:44:16;;;;;;;26.30;15.07;;;;;;;26.56;65.61;98342.45;2007488;88;21013;-64
2021/07/14 05:47:17;;;;;;;27.82;15.65;;;;;;;26.78;65.43;98343.61;2007109;89;21088;-64
2021/07/14 05:50:18;;;;;;;28.17;15.32;;;;;;;27.00;64.88;98348.20;2007069;88;21610;-64
2021/07/14 05:53:18;;;;;;;26.77;14.67;;;;;;;27.22;64.57;98345.23;2007261;88;20977;-64
2021/07/14 05:56:19;;;;;;;28.57;16.13;;;;;;;27.39;63.83;98344.27;2007123;88;21056;-64
2021/07/14 05:59:19;;;;;;;26.13;14.77;;;;;;;27.55;63.39;98349.67;2007344;88;21050;-64
2021/07/14 06:02:19;;;;;;;26.77;14.73;;;;;;;27.69;62.50;98347.20;2007211;88;21024;-64
2021/07/14 06:05:20;;;;;;;27.45;14.85;;;;;;;27.82;62.39;98355.20;2006864;88;21144;-66
2021/07/14 06:08:21;;;;;;;25.77;15.03;;;;;;;27.99;62.07;98352.03;2007207;89;21488;-64
2021/07/14 06:11:21;;;;;;;26.93;15.00;;;;;;;28.18;61.71;98351.58;2007258;88;21061;-64
2021/07/14 06:14:22;;;;;;;26.57;14.30;;;;;;;28.35;61.26;98346.47;2007123;89;21061;-64
2021/07/14 06:17:22;;;;;;;25.37;13.57;;;;;;;28.52;60.65;98346.20;2007096;88;21124;-65
2021/07/14 06:20:23;;;;;;;29.03;14.40;;;;;;;28.66;60.17;98351.50;2007284;88;21045;-65
2021/07/14 06:23:23;;;;;;;25.37;14.20;;;;;;;28.83;59.68;98357.14;2006421;88;21027;-66
2021/07/14 06:26:24;;;;;;;27.33;15.50;;;;;;;28.97;59.33;98352.44;1991913;88;21521;-66
2021/07/14 06:29:24;;;;;;;22.73;13.63;;;;;;;29.17;59.30;98346.81;2000529;88;21063;-66
2021/07/14 06:32:25;;;;;;;26.60;14.07;;;;;;;29.36;58.40;98344.95;2017616;88;21038;-66
2021/07/14 06:35:25;;;;;;;28.30;14.87;;;;;;;29.50;58.10;98340.20;2037725;87;21033;-67
2021/07/14 06:38:26;;;;;;;27.27;14.33;;;;;;;29.66;57.86;98342.25;2005490;89;20992;-64
2021/07/14 06:41:26;;;;;;;27.67;15.87;;;;;;;29.80;56.35;98338.84;2000164;87;21075;-66
2021/07/14 06:44:27;;;;;;;29.80;13.93;;;;;;;29.87;56.76;98341.49;2095588;84;21023;-65
2021/07/14 06:47:27;;;;;;;28.43;14.33;;;;;;;29.94;55.96;98342.72;2071121;86;21043;-66
2021/07/14 06:50:28;;;;;;;23.57;13.60;;;;;;;30.05;56.44;98341.93;2071089;86;21020;-66
2021/07/14 06:53:28;;;;;;;26.50;14.53;;;;;;;30.24;55.66;98331.84;2076779;85;21507;-66
2021/07/14 06:56:29;;;;;;;29.10;14.57;;;;;;;30.39;55.64;98334.11;2093103;85;20976;-66
2021/07/14 06:59:29;;;;;;;27.30;13.07;;;;;;;30.60;55.44;98335.95;2095415;85;21007;-67
2021/07/14 07:02:30;;;;;;;25.07;12.53;;;;;;;30.78;55.31;98329.06;2070958;86;21078;-66
2021/07/14 07:05:30;;;;;;;23.77;13.30;;;;;;;31.06;54.54;98337.83;2071293;86;21003;-67
2021/07/14 07:08:30;;;;;;;23.40;13.63;;;;;;;31.26;54.37;98332.52;2071002;86;21058;-66
2021/07/14 07:11:34;;;;;;;25.20;13.40;;;;;;;31.47;54.17;98329.69;2078773;85;21065;-66
2021/07/14 07:14:33;;;;;;;25.70;13.83;;;;;;;31.67;53.63;98333.89;2067482;85;21562;-67
2021/07/14 07:17:34;;;;;;;24.13;13.97;;;;;;;31.82;53.88;98334.14;2092444;83;21004;-68
2021/07/14 07:20:34;;;;;;;26.07;12.47;;;;;;;32.02;52.35;98339.64;2071005;86;20996;-67
2021/07/14 07:23:36;;;;;;;25.20;12.20;;;;;;;32.16;51.86;98340.19;2071027;86;20968;-66
2021/07/14 07:26:36;;;;;;;26.00;13.15;;;;;;;32.31;52.05;98343.12;2070746;86;21521;-65
2021/07/14 07:29:37;;;;;;;28.43;12.40;;;;;;;32.49;51.81;98348.84;2082881;85;20964;-66
2021/07/14 07:32:37;;;;;;;29.93;13.10;;;;;;;32.82;49.85;98337.67;2091378;83;20957;-65
2021/07/14 07:35:38;;;;;;;24.27;12.27;;;;;;;32.82;49.85;98337.67;2103851;85;21634;-66
2021/07/14 07:38:40;;;;;;;25.25;12.68;;;;;;;33.02;50.72;98353.42;2084432;85;21530;-66
2021/07/14 07:41:40;;;;;;;25.45;12.90;;;;;;;33.23;50.33;98353.19;2070689;86;21078;-68
2021/07/14 07:44:41;;;;;;;24.27;12.28;;;;;;;33.33;49.95;98351.09;2071045;86;21016;-65
2021/07/14 07:47:41;;;;;;;22.62;11.83;;;;;;;33.47;49.87;98355.07;2070975;86;21065;-62
2021/07/14 07:50:41;;;;;;;23.10;12.15;;;;;;;33.62;49.07;98348.16;2071136;86;21569;-65
2021/07/14 07:53:42;;;;;;;23.85;12.00;;;;;;;33.77;48.84;98348.91;2071126;86;21003;-63
2021/07/14 07:56:42;;;;;;;28.38;12.13;;;;;;;33.86;48.37;98352.78;2071153;86;21015;-62
2021/07/14 07:59:43;;;;;;;22.27;11.85;;;;;;;34.00;47.82;98358.09;2088514;85;21019;-64
2021/07/14 08:02:44;;;;;;;21.80;11.88;;;;;;;34.08;48.30;98363.61;2074161;85;20963;-63
2021/07/14 08:05:44;;;;;;;24.52;12.25;;;;;;;34.34;47.70;98366.58;2089944;85;20976;-64
2021/07/14 08:08:45;;;;;;;24.32;12.30;;;;;;;34.41;47.06;98366.34;2105925;85;20948;-65
2021/07/14 08:11:46;;;;;;;23.60;12.30;;;;;;;34.57;47.06;98376.28;2105736;85;20952;-63
2021/07/14 08:14:46;;;;;;;27.25;12.33;;;;;;;34.77;46.07;98369.30;2105609;85;21060;-65
2021/07/14 08:17:47;;;;;;;;;;;;;;;34.89;46.42;98370.52;2104464;85;20940;-68
2021/07/14 08:20:48;;;;;;;25.90;12.80;;;;;;;34.93;46.01;98368.36;2091736;85;20103;-67
2021/07/14 08:23:48;;;;;;;;;;;;;;;35.05;46.31;98381.76;2099400;85;21023;-67
2021/07/14 08:26:48;;;;;;;23.30;12.67;;;;;;;35.20;45.82;98372.86;2071137;86;20396;-65
2021/07/14 08:29:49;;;;;;;;;;;;;;;35.33;45.40;98373.75;2073229;86;21043;-67
2021/07/14 08:32:50;;;;;;;24.20;12.40;;;;;;;35.54;44.83;98381.47;2070954;86;20105;-66
2021/07/14 08:35:50;;;;;;;24.15;12.47;;;;;;;35.69;44.68;98379.86;2077784;85;21006;-65
2021/07/14 08:38:51;;;;;;;27.40;12.33;;;;;;;35.77;43.70;98381.23;2105213;85;21028;-64
2021/07/14 08:41:52;;;;;;;;;;;;;;;35.79;43.37;98383.13;2090321;84;21529;-62
2021/07/14 08:44:52;;;;;;;24.37;12.03;;;;;;;35.83;43.02;98386.47;2079368;86;20214;-64
2021/07/14 08:47:52;;;;;;;23.18;12.30;;;;;;;35.87;43.20;98385.37;2048266;85;21059;-63
2021/07/14 08:50:57;;;;;;;25.85;12.58;;;;;;;36.10;42.83;98387.32;2045139;87;21055;-65
2021/07/14 08:53:55;;;;;;;23.80;11.25;;;;;;;36.20;42.44;98380.50;2028620;87;21494;-67
2021/07/14 08:56:56;;;;;;;25.20;11.48;;;;;;;36.32;42.23;98378.89;2044968;87;21059;-66
2021/07/14 08:59:57;;;;;;;24.47;12.05;;;;;;;36.37;42.06;98381.07;2074070;86;21059;-65
2021/07/14 09:02:57;;;;;;;24.67;13.53;;;;;;;36.47;41.69;98380.25;2078734;85;21031;-65
2021/07/14 09:05:58;;;;;;;24.70;11.55;;;;;;;36.51;41.42;98377.80;2066799;86;21487;-67
2021/07/14 09:08:58;;;;;;;25.40;11.60;;;;;;;36.63;41.27;98381.61;2074862;86;21004;-65
2021/07/14 09:11:59;;;;;;;24.52;11.85;;;;;;;36.74;40.67;98384.59;2060622;85;21031;-65
2021/07/14 09:14:59;;;;;;;26.57;11.78;;;;;;;36.76;39.14;98382.39;2050815;86;20989;-65
2021/07/14 09:18:00;;;;;;;28.05;11.40;;;;;;;36.81;39.81;98391.98;2073477;86;20988;-63
2021/07/14 09:21:02;;;;;;;27.25;11.83;;;;;;;36.90;39.65;98387.58;2024967;87;21133;-63
2021/07/14 09:24:02;;;;;;;25.65;11.90;;;;;;;37.07;40.16;98393.29;1988410;90;21554;-65
2021/07/14 09:27:03;;;;;;;24.60;11.65;;;;;;;37.29;38.77;98395.69;1988367;89;21046;-63
2021/07/14 09:30:03;;;;;;;25.17;10.63;;;;;;;37.36;39.93;98395.40;2000694;87;21048;-65
2021/07/14 09:33:04;;;;;;;25.15;11.00;;;;;;;37.53;38.91;98394.49;1995846;88;20992;-67
2021/07/14 09:36:04;;;;;;;25.80;11.93;;;;;;;37.66;38.29;98398.53;2001680;88;21027;-66
2021/07/14 09:39:05;;;;;;;28.77;12.43;;;;;;;37.72;38.06;98398.76;2020419;88;21539;-66
2021/07/14 09:42:05;;;;;;;29.00;11.55;;;;;;;37.85;37.78;98405.55;2020457;87;21067;-66
2021/07/14 09:45:06;;;;;;;31.52;18.05;;;;;;;38.00;37.34;98410.09;2022308;88;21421;-67
2021/07/14 09:48:06;;;;;;;26.87;12.10;;;;;;;38.06;37.57;98404.88;2010585;88;21055;-65
2021/07/14 09:51:09;;;;;;;24.15;11.55;;;;;;;38.18;37.29;98409.98;1990412;89;21079;-65
2021/07/14 09:54:09;;;;;;;26.75;10.43;;;;;;;38.37;37.68;98404.66;1967606;89;21070;-66
2021/07/14 09:57:10;;;;;;;24.75;10.80;;;;;;;38.52;35.84;98411.10;1999160;89;21195;-65
2021/07/14 10:00:10;;;;;;;26.77;10.93;;;;;;;38.52;35.28;98401.52;2005455;87;21020;-65
2021/07/14 10:03:11;;;;;;;25.10;10.75;;;;;;;38.44;35.95;98402.41;2029454;88;21025;-65
2021/07/14 10:06:11;;;;;;;27.13;11.05;;;;;;;38.11;36.15;98406.75;2012034;88;20999;-65
2021/07/14 10:09:12;;;;;;;24.00;10.78;;;;;;;38.09;36.18;98409.77;1998967;89;21493;-66
2021/07/14 10:12:12;;;;;;;26.95;10.18;;;;;;;38.10;34.69;98403.20;1998865;89;21038;-65
2021/07/14 10:15:13;;;;;;;28.65;10.40;;;;;;;38.10;35.07;98401.84;1998905;89;21167;-65
2021/07/14 10:18:14;;;;;;;23.25;10.32;;;;;;;38.28;34.73;98398.17;2016213;88;21031;-67
2021/07/14 10:21:15;;;;;;;25.25;10.53;;;;;;;38.18;35.70;98396.30;2031224;88;21135;-66
2021/07/14 10:24:16;;;;;;;26.30;10.32;;;;;;;38.16;35.52;98390.84;2031205;87;21008;-66
2021/07/14 10:27:16;;;;;;;29.70;10.82;;;;;;;38.00;33.58;98395.61;2031430;88;21048;-66
2021/07/14 10:30:17;;;;;;;26.35;10.35;;;;;;;37.70;34.77;98395.50;2031354;88;21023;-66
2021/07/14 10:33:17;;;;;;;26.57;11.22;;;;;;;37.52;35.19;98392.04;2031513;88;21015;-65
2021/07/14 10:36:18;;;;;;;25.50;11.35;;;;;;;37.50;35.30;98390.12;2031229;88;21019;-65
2021/07/14 10:39:19;;;;;;;25.30;10.03;;;;;;;37.81;35.53;98389.44;2031178;88;21059;-67
2021/07/14 10:42:19;;;;;;;23.05;10.20;;;;;;;38.18;34.71;98392.75;2020775;87;21001;-67
2021/07/14 10:45:20;;;;;;;26.15;10.38;;;;;;;38.49;33.31;98387.87;2062505;86;21126;-67
2021/07/14 10:48:21;;;;;;;26.30;10.35;;;;;;;38.61;34.16;98391.02;2049015;86;21106;-65
2021/07/14 10:51:21;;;;;;;28.67;10.58;;;;;;;38.92;33.84;98389.91;2033014;88;21079;-65
2021/07/14 10:54:21;;;;;;;26.02;10.23;;;;;;;39.12;33.02;98390.23;2033177;88;20995;-64
2021/07/14 10:57:22;;;;;;;28.98;9.65;;;;;;;39.25;33.52;98392.33;2033369;88;21023;-63
2021/07/14 11:00:22;;;;;;;29.55;9.25;;;;;;;39.41;31.69;98380.60;2033378;88;21538;-63
2021/07/14 11:03:23;;;;;;;23.77;9.30;;;;;;;39.56;30.14;98376.02;2033273;88;21035;-63
2021/07/14 11:06:23;;;;;;;30.35;9.28;;;;;;;39.29;28.55;98367.86;2033283;88;21011;-63
2021/07/14 11:09:23;;;;;;;26.70;9.18;;;;;;;39.15;27.90;98365.01;2033506;88;20999;-63
2021/07/14 11:12:24;;;;;;;23.95;8.78;;;;;;;38.89;28.99;98365.27;2054420;86;20995;-63
2021/07/14 11:15:25;;;;;;;26.90;9.15;;;;;;;38.95;30.34;98362.76;2066456;86;21087;-63
2021/07/14 11:18:25;;;;;;;29.05;8.95;;;;;;;39.31;29.42;98356.86;2066767;86;21084;-63
2021/07/14 11:21:26;;;;;;;28.87;8.88;;;;;;;39.64;29.63;98359.73;2066807;86;21020;-63
2021/07/14 11:24:26;;;;;;;27.90;8.75;;;;;;;40.03;29.63;98359.73;2066754;86;21551;-65
2021/07/14 11:27:27;;;;;;;30.12;9.18;;;;;;;40.07;27.41;98359.39;2066725;86;20996;-63
2021/07/14 11:30:27;;;;;;;27.07;9.30;;;;;;;40.03;28.61;98360.56;2066467;86;21119;-63
2021/07/14 11:33:28;;;;;;;27.25;8.90;;;;;;;40.15;28.98;98360.09;2066961;86;21004;-63
2021/07/14 11:36:29;;;;;;;28.73;8.75;;;;;;;40.50;28.41;98365.56;2066735;86;21067;-65
2021/07/14 11:39:29;;;;;;;29.02;9.30;;;;;;;40.80;27.99;98366.66;2066843;86;21000;-66
2021/07/14 11:42:29;;;;;;;24.43;8.50;;;;;;;40.79;27.06;98362.27;2051421;86;21575;-68
2021/07/14 11:45:30;;;;;;;24.52;8.58;;;;;;;40.51;27.88;98365.80;2064887;86;21032;-66
2021/07/14 11:48:30;;;;;;;24.75;9.58;;;;;;;40.34;27.07;98364.16;2046487;86;21131;-68
2021/07/14 11:51:33;;;;;;;27.22;11.45;;;;;;;40.21;27.39;98367.11;2033341;88;21074;-65
2021/07/14 11:54:33;;;;;;;30.57;9.23;;;;;;;40.30;28.04;98368.61;2012884;88;22162;-66
2021/07/14 11:57:33;;;;;;;26.82;9.25;;;;;;;40.41;27.61;98374.77;2062005;86;21069;-65
2021/07/14 12:00:34;;;;;;;23.67;8.30;;;;;;;40.43;27.55;98363.73;2049811;86;21090;-65
2021/07/14 12:03:34;;;;;;;26.90;8.40;;;;;;;40.23;26.40;98375.89;2062960;86;21055;-68
2021/07/14 12:06:37;;;;;;;23.85;8.28;;;;;;;39.97;26.96;98374.89;2006886;88;22000;-66
2021/07/14 12:09:38;;;;;;;23.80;8.60;;;;;;;39.77;27.87;98376.55;2032871;87;21012;-67
2021/07/14 12:12:39;;;;;;;27.07;8.73;;;;;;;39.79;27.12;98375.72;2033019;87;21000;-66
2021/07/14 12:15:40;;;;;;;27.52;9.15;;;;;;;39.90;28.03;98379.94;2034843;86;21078;-68
2021/07/14 12:18:40;;;;;;;26.33;9.58;;;;;;;40.16;28.29;98375.45;2066365;86;21578;-69
2021/07/14 12:21:40;;;;;;;23.98;9.55;;;;;;;40.26;28.20;98368.95;2066498;86;21090;-67
2021/07/14 12:24:41;;;;;;;24.15;9.28;;;;;;;40.30;27.99;98365.87;2061829;86;21083;-66
2021/07/14 12:27:41;;;;;;;29.63;9.93;;;;;;;40.39;27.74;98364.61;2075888;86;21002;-68
2021/07/14 12:30:43;;;;;;;24.80;9.00;;;;;;;40.71;28.08;98363.80;2083297;85;20974;-68
2021/07/14 12:33:44;;;;;;;27.10;12.37;;;;;;;40.91;27.60;98352.20;2075495;85;21105;-69
2021/07/14 12:36:45;;;;;;;24.72;10.32;;;;;;;40.87;28.33;98356.88;2019999;87;20977;-69
2021/07/14 12:39:45;;;;;;;25.75;9.80;;;;;;;40.68;28.48;98358.91;2030958;88;21038;-65
2021/07/14 12:42:45;;;;;;;24.70;9.70;;;;;;;40.47;26.99;98352.44;2014228;88;21048;-66
2021/07/14 12:45:46;;;;;;;23.80;10.78;;;;;;;40.30;28.09;98362.58;2000507;89;21081;-64
2021/07/14 12:48:46;;;;;;;22.15;10.25;;;;;;;40.16;28.85;98363.91;2000950;89;21050;-68
2021/07/14 12:51:47;;;;;;;26.70;11.68;;;;;;;40.01;29.21;98370.44;2004950;88;21061;-67
2021/07/14 12:54:47;;;;;;;34.65;12.58;;;;;;;39.50;28.44;98377.45;2018612;87;21493;-68
2021/07/14 12:57:48;;;;;;;31.37;12.50;;;;;;;38.50;29.96;98370.87;2028942;87;21437;-64
2021/07/14 13:00:48;;;;;;;34.00;13.08;;;;;;;37.82;30.92;98373.86;2000755;89;20998;-66
2021/07/14 13:03:49;;;;;;;28.25;12.85;;;;;;;37.47;32.14;98369.64;2000709;89;21018;-68
2021/07/14 13:06:49;;;;;;;29.92;12.80;;;;;;;37.20;31.94;98379.02;2000939;89;21013;-65
2021/07/14 13:09:50;;;;;;;30.90;12.63;;;;;;;36.78;33.09;98380.25;2007251;88;21651;-66
2021/07/14 13:12:51;;;;;;;30.30;12.68;;;;;;;36.31;33.36;98384.09;2026884;88;21551;-65
2021/07/14 13:15:52;;;;;;;33.65;13.13;;;;;;;36.01;34.17;98389.77;2018061;88;21085;-65
2021/07/14 13:18:54;;;;;;;28.90;13.03;;;;;;;35.95;34.36;98382.65;2000521;89;21045;-66
2021/07/14 13:21:55;;;;;;;26.15;12.95;;;;;;;36.10;34.29;98385.40;2000644;89;21545;-66
2021/07/14 13:24:55;;;;;;;31.45;12.93;;;;;;;35.92;34.85;98372.28;2000702;89;21034;-65
2021/07/14 13:27:57;;;;;;;26.55;12.15;;;;;;;36.20;35.26;98371.75;2014429;88;20971;-67
2021/07/14 13:30:57;;;;;;;25.27;13.18;;;;;;;36.39;34.79;98376.70;2026552;87;20997;-68
2021/07/14 13:33:58;;;;;;;27.95;13.25;;;;;;;36.54;34.42;98380.79;2024382;88;21086;-68
2021/07/14 13:36:58;;;;;;;27.02;12.35;;;;;;;36.52;35.67;98378.05;2020973;87;21471;-69
2021/07/14 13:39:58;;;;;;;28.50;13.55;;;;;;;36.35;35.37;98381.06;2000779;89;21493;-70
2021/07/14 13:42:59;;;;;;;29.15;13.40;;;;;;;36.33;34.84;98385.44;2000821;89;21018;-64
2021/07/14 13:45:59;;;;;;;29.23;13.08;;;;;;;36.15;34.94;98383.21;1992544;89;21074;-71
2021/07/14 13:49:00;;;;;;;27.22;13.48;;;;;;;35.98;35.44;98387.59;1992550;89;21030;-65
2021/07/14 13:52:00;;;;;;;33.30;13.65;;;;;;;35.82;35.77;98390.28;1992360;89;21067;-65
2021/07/14 13:55:01;;;;;;;25.90;13.22;;;;;;;35.99;35.64;98391.93;1992455;89;21070;-66
2021/07/14 13:58:01;;;;;;;29.05;13.48;;;;;;;36.10;35.79;98388.69;1992112;89;21541;-65
2021/07/14 14:01:02;;;;;;;28.55;12.82;;;;;;;36.02;35.81;98389.50;1992334;89;21085;-65
2021/07/14 14:04:02;;;;;;;27.82;12.85;;;;;;;35.96;35.23;98380.20;1992382;89;21077;-64